sensor_id;sensor_type;location;lat;lon;timestamp;P1;durP1;ratioP1;P2;durP2;ratioP2
71423;SDS011;59240;51.370;-0.486;2023-09-30T00:01:54;9.68;;;2.10;;
71423;SDS011;59240;51.370;-0.486;2023-09-30T00:06:51;5.53;;;1.27;;
71423;SDS011;59240;51.370;-0.486;2023-09-30T00:11:48;3.55;;;1.40;;
71423;SDS011;59240;51.370;-0.486;2023-09-30T00:16:45;9.15;;;1.73;;
71423;SDS011;59240;51.370;-0.486;2023-09-30T00:21:42;3.95;;;1.73;;
71423;SDS011;59240;51.370;-0.486;2023-09-30T00:26:39;6.93;;;1.50;;
71423;SDS011;59240;51.370;-0.486;2023-09-30T00:31:36;9.57;;;1.70;;
71423;SDS011;59240;51.370;-0.486;2023-09-30T00:36:33;10.27;;;1.42;;
71423;SDS011;59240;51.370;-0.486;2023-09-30T00:41:30;7.55;;;2.13;;
71423;SDS011;59240;51.370;-0.486;2023-09-30T00:46:33;5.05;;;1.30;;
71423;SDS011;59240;51.370;-0.486;2023-09-30T00:51:34;5.13;;;2.00;;
71423;SDS011;59240;51.370;-0.486;2023-09-30T00:56:31;8.57;;;1.73;;
71423;SDS011;59240;51.370;-0.486;2023-09-30T01:01:29;8.35;;;1.98;;
71423;SDS011;59240;51.370;-0.486;2023-09-30T01:06:26;7.22;;;1.80;;
71423;SDS011;59240;51.370;-0.486;2023-09-30T01:11:24;6.78;;;1.58;;
71423;SDS011;59240;51.370;-0.486;2023-09-30T01:16:22;6.47;;;1.50;;
71423;SDS011;59240;51.370;-0.486;2023-09-30T01:21:20;10.20;;;2.00;;
71423;SDS011;59240;51.370;-0.486;2023-09-30T01:26:17;5.60;;;1.40;;
71423;SDS011;59240;51.370;-0.486;2023-09-30T01:31:14;7.22;;;2.00;;
71423;SDS011;59240;51.370;-0.486;2023-09-30T01:36:11;11.68;;;2.53;;
71423;SDS011;59240;51.370;-0.486;2023-09-30T01:41:08;7.03;;;2.08;;
71423;SDS011;59240;51.370;-0.486;2023-09-30T01:46:05;7.95;;;1.52;;
71423;SDS011;59240;51.370;-0.486;2023-09-30T01:51:03;7.43;;;2.05;;
71423;SDS011;59240;51.370;-0.486;2023-09-30T01:55:59;9.52;;;1.65;;
71423;SDS011;59240;51.370;-0.486;2023-09-30T02:01:01;11.00;;;2.08;;
71423;SDS011;59240;51.370;-0.486;2023-09-30T02:05:59;7.32;;;1.80;;
71423;SDS011;59240;51.370;-0.486;2023-09-30T02:10:56;8.93;;;1.58;;
71423;SDS011;59240;51.370;-0.486;2023-09-30T02:15:53;8.02;;;1.85;;
71423;SDS011;59240;51.370;-0.486;2023-09-30T02:20:52;5.93;;;1.60;;
71423;SDS011;59240;51.370;-0.486;2023-09-30T02:25:50;11.80;;;2.95;;
71423;SDS011;59240;51.370;-0.486;2023-09-30T02:30:47;8.63;;;2.28;;
71423;SDS011;59240;51.370;-0.486;2023-09-30T02:35:45;7.53;;;1.80;;
71423;SDS011;59240;51.370;-0.486;2023-09-30T02:40:42;3.75;;;1.50;;
71423;SDS011;59240;51.370;-0.486;2023-09-30T02:45:43;7.20;;;2.17;;
71423;SDS011;59240;51.370;-0.486;2023-09-30T02:50:43;5.22;;;1.65;;
71423;SDS011;59240;51.370;-0.486;2023-09-30T02:55:41;4.97;;;1.90;;
71423;SDS011;59240;51.370;-0.486;2023-09-30T03:00:38;7.65;;;2.00;;
71423;SDS011;59240;51.370;-0.486;2023-09-30T03:05:36;9.40;;;1.33;;
71423;SDS011;59240;51.370;-0.486;2023-09-30T03:10:33;8.13;;;1.73;;
71423;SDS011;59240;51.370;-0.486;2023-09-30T03:15:30;6.40;;;1.58;;
71423;SDS011;59240;51.370;-0.486;2023-09-30T03:20:28;12.10;;;2.17;;
71423;SDS011;59240;51.370;-0.486;2023-09-30T03:25:25;9.88;;;1.77;;
71423;SDS011;59240;51.370;-0.486;2023-09-30T03:30:25;7.38;;;1.48;;
71423;SDS011;59240;51.370;-0.486;2023-09-30T03:35:22;7.35;;;1.63;;
71423;SDS011;59240;51.370;-0.486;2023-09-30T03:40:20;11.75;;;1.80;;
71423;SDS011;59240;51.370;-0.486;2023-09-30T03:45:24;5.68;;;1.80;;
71423;SDS011;59240;51.370;-0.486;2023-09-30T03:50:21;8.90;;;2.00;;
71423;SDS011;59240;51.370;-0.486;2023-09-30T03:55:20;4.78;;;1.58;;
71423;SDS011;59240;51.370;-0.486;2023-09-30T04:00:17;6.15;;;1.52;;
71423;SDS011;59240;51.370;-0.486;2023-09-30T04:05:17;8.02;;;1.75;;
71423;SDS011;59240;51.370;-0.486;2023-09-30T04:10:14;4.50;;;1.25;;
71423;SDS011;59240;51.370;-0.486;2023-09-30T04:15:12;5.63;;;1.60;;
71423;SDS011;59240;51.370;-0.486;2023-09-30T04:20:10;7.65;;;1.85;;
71423;SDS011;59240;51.370;-0.486;2023-09-30T04:25:12;5.95;;;1.38;;
71423;SDS011;59240;51.370;-0.486;2023-09-30T04:30:09;8.98;;;2.00;;
71423;SDS011;59240;51.370;-0.486;2023-09-30T04:35:07;6.82;;;2.00;;
71423;SDS011;59240;51.370;-0.486;2023-09-30T04:40:05;7.80;;;1.75;;
71423;SDS011;59240;51.370;-0.486;2023-09-30T04:45:16;11.40;;;2.28;;
71423;SDS011;59240;51.370;-0.486;2023-09-30T04:50:17;9.10;;;1.90;;
71423;SDS011;59240;51.370;-0.486;2023-09-30T04:55:16;7.68;;;2.13;;
71423;SDS011;59240;51.370;-0.486;2023-09-30T05:00:14;10.48;;;2.40;;
71423;SDS011;59240;51.370;-0.486;2023-09-30T05:05:15;5.95;;;1.48;;
71423;SDS011;59240;51.370;-0.486;2023-09-30T05:10:13;6.40;;;1.55;;
71423;SDS011;59240;51.370;-0.486;2023-09-30T05:15:12;8.18;;;1.88;;
71423;SDS011;59240;51.370;-0.486;2023-09-30T05:20:13;8.10;;;1.83;;
71423;SDS011;59240;51.370;-0.486;2023-09-30T05:25:14;3.55;;;1.30;;
71423;SDS011;59240;51.370;-0.486;2023-09-30T05:30:15;8.07;;;2.40;;
71423;SDS011;59240;51.370;-0.486;2023-09-30T05:35:12;10.55;;;1.55;;
71423;SDS011;59240;51.370;-0.486;2023-09-30T05:40:10;9.88;;;1.85;;
71423;SDS011;59240;51.370;-0.486;2023-09-30T05:45:19;11.07;;;2.10;;
71423;SDS011;59240;51.370;-0.486;2023-09-30T05:50:20;5.22;;;1.60;;
71423;SDS011;59240;51.370;-0.486;2023-09-30T05:55:23;6.60;;;1.67;;
71423;SDS011;59240;51.370;-0.486;2023-09-30T06:00:23;6.72;;;1.58;;
71423;SDS011;59240;51.370;-0.486;2023-09-30T06:05:26;10.82;;;1.90;;
71423;SDS011;59240;51.370;-0.486;2023-09-30T06:10:24;9.38;;;1.52;;
71423;SDS011;59240;51.370;-0.486;2023-09-30T06:15:25;5.75;;;1.70;;
71423;SDS011;59240;51.370;-0.486;2023-09-30T06:20:23;7.00;;;1.50;;
71423;SDS011;59240;51.370;-0.486;2023-09-30T06:25:24;10.30;;;2.30;;
71423;SDS011;59240;51.370;-0.486;2023-09-30T06:30:22;5.97;;;2.03;;
71423;SDS011;59240;51.370;-0.486;2023-09-30T06:35:27;7.25;;;2.20;;
71423;SDS011;59240;51.370;-0.486;2023-09-30T06:40:27;10.65;;;1.45;;
71423;SDS011;59240;51.370;-0.486;2023-09-30T06:45:23;5.93;;;1.70;;
71423;SDS011;59240;51.370;-0.486;2023-09-30T06:50:20;7.53;;;1.83;;
71423;SDS011;59240;51.370;-0.486;2023-09-30T06:55:18;7.78;;;2.20;;
71423;SDS011;59240;51.370;-0.486;2023-09-30T07:00:15;10.95;;;1.80;;
71423;SDS011;59240;51.370;-0.486;2023-09-30T07:05:14;10.07;;;1.83;;
71423;SDS011;59240;51.370;-0.486;2023-09-30T07:10:11;6.05;;;1.80;;
71423;SDS011;59240;51.370;-0.486;2023-09-30T07:15:09;12.00;;;2.00;;
71423;SDS011;59240;51.370;-0.486;2023-09-30T07:20:06;10.38;;;2.42;;
71423;SDS011;59240;51.370;-0.486;2023-09-30T07:25:03;6.40;;;1.80;;
71423;SDS011;59240;51.370;-0.486;2023-09-30T07:30:01;6.10;;;1.50;;
71423;SDS011;59240;51.370;-0.486;2023-09-30T07:34:58;14.25;;;1.77;;
71423;SDS011;59240;51.370;-0.486;2023-09-30T07:39:55;13.73;;;1.50;;
71423;SDS011;59240;51.370;-0.486;2023-09-30T07:44:51;10.93;;;2.05;;
71423;SDS011;59240;51.370;-0.486;2023-09-30T07:49:49;7.90;;;1.50;;
71423;SDS011;59240;51.370;-0.486;2023-09-30T07:54:46;4.93;;;1.65;;
71423;SDS011;59240;51.370;-0.486;2023-09-30T07:59:44;8.32;;;1.52;;
71423;SDS011;59240;51.370;-0.486;2023-09-30T08:04:41;7.30;;;1.83;;
71423;SDS011;59240;51.370;-0.486;2023-09-30T08:09:37;7.47;;;2.85;;
71423;SDS011;59240;51.370;-0.486;2023-09-30T08:14:34;20.27;;;3.97;;
71423;SDS011;59240;51.370;-0.486;2023-09-30T08:19:32;8.07;;;1.67;;
71423;SDS011;59240;51.370;-0.486;2023-09-30T08:24:29;5.25;;;2.05;;
71423;SDS011;59240;51.370;-0.486;2023-09-30T08:29:26;7.90;;;2.42;;
71423;SDS011;59240;51.370;-0.486;2023-09-30T08:34:23;10.52;;;1.73;;
71423;SDS011;59240;51.370;-0.486;2023-09-30T08:39:20;10.25;;;1.30;;
71423;SDS011;59240;51.370;-0.486;2023-09-30T08:44:17;8.75;;;1.83;;
71423;SDS011;59240;51.370;-0.486;2023-09-30T08:49:14;6.05;;;1.30;;
71423;SDS011;59240;51.370;-0.486;2023-09-30T08:54:12;5.28;;;2.00;;
71423;SDS011;59240;51.370;-0.486;2023-09-30T08:59:08;8.85;;;1.75;;
71423;SDS011;59240;51.370;-0.486;2023-09-30T09:04:06;7.85;;;2.78;;
71423;SDS011;59240;51.370;-0.486;2023-09-30T09:09:16;3.42;;;1.20;;
71423;SDS011;59240;51.370;-0.486;2023-09-30T09:14:14;14.35;;;1.73;;
71423;SDS011;59240;51.370;-0.486;2023-09-30T09:19:14;6.38;;;1.48;;
71423;SDS011;59240;51.370;-0.486;2023-09-30T09:24:17;8.68;;;1.23;;
71423;SDS011;59240;51.370;-0.486;2023-09-30T09:29:24;5.63;;;1.40;;
71423;SDS011;59240;51.370;-0.486;2023-09-30T09:34:23;5.60;;;1.25;;
71423;SDS011;59240;51.370;-0.486;2023-09-30T09:39:28;4.28;;;1.30;;
71423;SDS011;59240;51.370;-0.486;2023-09-30T09:44:27;5.20;;;1.38;;
71423;SDS011;59240;51.370;-0.486;2023-09-30T09:49:24;8.77;;;1.80;;
71423;SDS011;59240;51.370;-0.486;2023-09-30T09:54:22;5.22;;;1.23;;
71423;SDS011;59240;51.370;-0.486;2023-09-30T09:59:20;9.70;;;1.55;;
71423;SDS011;59240;51.370;-0.486;2023-09-30T10:09:17;4.30;;;0.95;;
71423;SDS011;59240;51.370;-0.486;2023-09-30T10:14:32;4.95;;;1.52;;
71423;SDS011;59240;51.370;-0.486;2023-09-30T10:19:30;8.80;;;1.73;;
71423;SDS011;59240;51.370;-0.486;2023-09-30T10:24:28;5.22;;;1.50;;
71423;SDS011;59240;51.370;-0.486;2023-09-30T10:29:38;5.43;;;1.35;;
71423;SDS011;59240;51.370;-0.486;2023-09-30T10:34:37;5.40;;;1.13;;
71423;SDS011;59240;51.370;-0.486;2023-09-30T10:45:04;3.33;;;0.88;;
71423;SDS011;59240;51.370;-0.486;2023-09-30T10:50:01;9.00;;;1.13;;
71423;SDS011;59240;51.370;-0.486;2023-09-30T10:55:02;3.42;;;1.20;;
71423;SDS011;59240;51.370;-0.486;2023-09-30T11:00:09;7.75;;;1.35;;
71423;SDS011;59240;51.370;-0.486;2023-09-30T11:05:11;8.20;;;1.88;;
71423;SDS011;59240;51.370;-0.486;2023-09-30T11:10:08;6.55;;;1.00;;
71423;SDS011;59240;51.370;-0.486;2023-09-30T11:15:05;5.35;;;1.02;;
71423;SDS011;59240;51.370;-0.486;2023-09-30T11:20:06;5.18;;;0.82;;
71423;SDS011;59240;51.370;-0.486;2023-09-30T11:25:04;4.10;;;1.20;;
71423;SDS011;59240;51.370;-0.486;2023-09-30T11:30:02;1.65;;;0.82;;
71423;SDS011;59240;51.370;-0.486;2023-09-30T11:34:59;5.97;;;1.45;;
71423;SDS011;59240;51.370;-0.486;2023-09-30T11:40:08;5.53;;;1.48;;
71423;SDS011;59240;51.370;-0.486;2023-09-30T11:45:27;5.45;;;1.10;;
71423;SDS011;59240;51.370;-0.486;2023-09-30T11:50:24;6.18;;;1.38;;
71423;SDS011;59240;51.370;-0.486;2023-09-30T11:55:21;5.80;;;1.25;;
71423;SDS011;59240;51.370;-0.486;2023-09-30T12:00:18;8.68;;;1.35;;
71423;SDS011;59240;51.370;-0.486;2023-09-30T12:05:15;5.78;;;1.30;;
71423;SDS011;59240;51.370;-0.486;2023-09-30T12:10:13;5.68;;;1.10;;
71423;SDS011;59240;51.370;-0.486;2023-09-30T12:15:11;9.88;;;1.80;;
71423;SDS011;59240;51.370;-0.486;2023-09-30T12:20:10;5.32;;;1.33;;
71423;SDS011;59240;51.370;-0.486;2023-09-30T12:25:07;5.95;;;0.90;;
71423;SDS011;59240;51.370;-0.486;2023-09-30T12:30:05;8.65;;;1.23;;
71423;SDS011;59240;51.370;-0.486;2023-09-30T12:35:03;4.05;;;1.10;;
71423;SDS011;59240;51.370;-0.486;2023-09-30T12:40:01;5.63;;;1.23;;
71423;SDS011;59240;51.370;-0.486;2023-09-30T12:44:58;6.22;;;1.10;;
71423;SDS011;59240;51.370;-0.486;2023-09-30T12:49:56;4.28;;;1.20;;
71423;SDS011;59240;51.370;-0.486;2023-09-30T12:54:52;6.05;;;1.38;;
71423;SDS011;59240;51.370;-0.486;2023-09-30T12:59:50;6.35;;;0.90;;
71423;SDS011;59240;51.370;-0.486;2023-09-30T13:04:46;6.72;;;1.00;;
71423;SDS011;59240;51.370;-0.486;2023-09-30T13:09:44;11.02;;;1.85;;
71423;SDS011;59240;51.370;-0.486;2023-09-30T13:14:40;6.47;;;2.00;;
71423;SDS011;59240;51.370;-0.486;2023-09-30T13:19:37;5.47;;;1.05;;
71423;SDS011;59240;51.370;-0.486;2023-09-30T13:24:34;5.70;;;1.10;;
71423;SDS011;59240;51.370;-0.486;2023-09-30T13:29:36;5.90;;;1.20;;
71423;SDS011;59240;51.370;-0.486;2023-09-30T13:34:33;3.67;;;1.10;;
71423;SDS011;59240;51.370;-0.486;2023-09-30T13:39:30;4.35;;;1.10;;
71423;SDS011;59240;51.370;-0.486;2023-09-30T13:44:27;7.68;;;1.13;;
71423;SDS011;59240;51.370;-0.486;2023-09-30T13:49:24;7.03;;;1.38;;
71423;SDS011;59240;51.370;-0.486;2023-09-30T13:54:23;8.05;;;1.60;;
71423;SDS011;59240;51.370;-0.486;2023-09-30T13:59:20;5.40;;;1.85;;
71423;SDS011;59240;51.370;-0.486;2023-09-30T14:04:17;4.75;;;1.50;;
71423;SDS011;59240;51.370;-0.486;2023-09-30T14:09:14;7.03;;;1.13;;
71423;SDS011;59240;51.370;-0.486;2023-09-30T14:14:31;5.30;;;1.05;;
71423;SDS011;59240;51.370;-0.486;2023-09-30T14:24:27;4.93;;;1.08;;
71423;SDS011;59240;51.370;-0.486;2023-09-30T14:29:24;4.13;;;1.00;;
71423;SDS011;59240;51.370;-0.486;2023-09-30T14:34:21;4.65;;;1.40;;
71423;SDS011;59240;51.370;-0.486;2023-09-30T14:39:18;8.13;;;1.33;;
71423;SDS011;59240;51.370;-0.486;2023-09-30T14:44:15;4.93;;;1.30;;
71423;SDS011;59240;51.370;-0.486;2023-09-30T14:49:13;3.53;;;1.55;;
71423;SDS011;59240;51.370;-0.486;2023-09-30T14:54:11;7.07;;;1.42;;
71423;SDS011;59240;51.370;-0.486;2023-09-30T14:59:07;4.40;;;1.55;;
71423;SDS011;59240;51.370;-0.486;2023-09-30T15:04:05;5.63;;;1.38;;
71423;SDS011;59240;51.370;-0.486;2023-09-30T15:09:06;4.60;;;0.80;;
71423;SDS011;59240;51.370;-0.486;2023-09-30T15:14:06;7.40;;;1.30;;
71423;SDS011;59240;51.370;-0.486;2023-09-30T15:19:03;2.65;;;0.88;;
71423;SDS011;59240;51.370;-0.486;2023-09-30T15:24:04;4.50;;;2.13;;
71423;SDS011;59240;51.370;-0.486;2023-09-30T15:29:01;5.10;;;1.30;;
71423;SDS011;59240;51.370;-0.486;2023-09-30T15:33:59;6.28;;;1.33;;
71423;SDS011;59240;51.370;-0.486;2023-09-30T15:38:56;9.23;;;1.58;;
71423;SDS011;59240;51.370;-0.486;2023-09-30T15:43:53;7.75;;;1.15;;
71423;SDS011;59240;51.370;-0.486;2023-09-30T15:48:56;5.45;;;1.35;;
71423;SDS011;59240;51.370;-0.486;2023-09-30T15:53:53;6.28;;;1.17;;
71423;SDS011;59240;51.370;-0.486;2023-09-30T15:58:51;5.15;;;1.02;;
71423;SDS011;59240;51.370;-0.486;2023-09-30T16:03:48;6.18;;;1.73;;
71423;SDS011;59240;51.370;-0.486;2023-09-30T16:08:45;5.70;;;1.73;;
71423;SDS011;59240;51.370;-0.486;2023-09-30T16:13:42;4.70;;;1.23;;
71423;SDS011;59240;51.370;-0.486;2023-09-30T16:18:39;7.88;;;1.42;;
71423;SDS011;59240;51.370;-0.486;2023-09-30T16:23:37;5.97;;;1.50;;
71423;SDS011;59240;51.370;-0.486;2023-09-30T16:28:34;8.15;;;1.15;;
71423;SDS011;59240;51.370;-0.486;2023-09-30T16:33:31;6.60;;;1.40;;
71423;SDS011;59240;51.370;-0.486;2023-09-30T16:38:28;10.75;;;2.05;;
71423;SDS011;59240;51.370;-0.486;2023-09-30T16:43:25;4.53;;;1.08;;
71423;SDS011;59240;51.370;-0.486;2023-09-30T16:48:22;6.50;;;1.15;;
71423;SDS011;59240;51.370;-0.486;2023-09-30T16:53:19;9.70;;;1.88;;
71423;SDS011;59240;51.370;-0.486;2023-09-30T16:58:16;9.00;;;3.38;;
71423;SDS011;59240;51.370;-0.486;2023-09-30T17:03:14;11.68;;;2.67;;
71423;SDS011;59240;51.370;-0.486;2023-09-30T17:08:11;5.70;;;1.88;;
71423;SDS011;59240;51.370;-0.486;2023-09-30T17:13:08;3.90;;;1.55;;
71423;SDS011;59240;51.370;-0.486;2023-09-30T17:18:05;5.68;;;1.42;;
71423;SDS011;59240;51.370;-0.486;2023-09-30T17:23:02;3.95;;;1.58;;
71423;SDS011;59240;51.370;-0.486;2023-09-30T17:27:59;12.32;;;3.03;;
71423;SDS011;59240;51.370;-0.486;2023-09-30T17:32:56;8.38;;;1.58;;
71423;SDS011;59240;51.370;-0.486;2023-09-30T17:37:53;6.93;;;2.13;;
71423;SDS011;59240;51.370;-0.486;2023-09-30T17:42:50;6.53;;;1.85;;
71423;SDS011;59240;51.370;-0.486;2023-09-30T17:47:49;6.88;;;1.70;;
71423;SDS011;59240;51.370;-0.486;2023-09-30T17:52:46;6.22;;;1.40;;
71423;SDS011;59240;51.370;-0.486;2023-09-30T17:57:43;9.45;;;1.50;;
71423;SDS011;59240;51.370;-0.486;2023-09-30T18:02:40;7.07;;;2.00;;
71423;SDS011;59240;51.370;-0.486;2023-09-30T18:07:37;8.65;;;1.90;;
71423;SDS011;59240;51.370;-0.486;2023-09-30T18:12:34;4.47;;;1.40;;
71423;SDS011;59240;51.370;-0.486;2023-09-30T18:17:32;9.60;;;1.98;;
71423;SDS011;59240;51.370;-0.486;2023-09-30T18:22:28;8.85;;;3.05;;
71423;SDS011;59240;51.370;-0.486;2023-09-30T18:27:26;7.10;;;2.58;;
71423;SDS011;59240;51.370;-0.486;2023-09-30T18:32:23;8.50;;;1.88;;
71423;SDS011;59240;51.370;-0.486;2023-09-30T18:37:20;9.73;;;2.20;;
71423;SDS011;59240;51.370;-0.486;2023-09-30T18:42:17;6.18;;;2.78;;
71423;SDS011;59240;51.370;-0.486;2023-09-30T18:47:14;5.80;;;2.13;;
71423;SDS011;59240;51.370;-0.486;2023-09-30T18:52:11;6.20;;;1.92;;
71423;SDS011;59240;51.370;-0.486;2023-09-30T18:57:09;9.25;;;2.30;;
71423;SDS011;59240;51.370;-0.486;2023-09-30T19:02:06;6.88;;;2.15;;
71423;SDS011;59240;51.370;-0.486;2023-09-30T19:07:03;9.88;;;2.08;;
71423;SDS011;59240;51.370;-0.486;2023-09-30T19:12:01;11.75;;;3.20;;
71423;SDS011;59240;51.370;-0.486;2023-09-30T19:16:59;11.02;;;4.32;;
71423;SDS011;59240;51.370;-0.486;2023-09-30T19:21:56;12.27;;;3.78;;
71423;SDS011;59240;51.370;-0.486;2023-09-30T19:26:52;10.73;;;3.30;;
71423;SDS011;59240;51.370;-0.486;2023-09-30T19:31:49;9.98;;;2.20;;
71423;SDS011;59240;51.370;-0.486;2023-09-30T19:36:46;10.82;;;1.90;;
71423;SDS011;59240;51.370;-0.486;2023-09-30T19:41:44;7.15;;;2.00;;
71423;SDS011;59240;51.370;-0.486;2023-09-30T19:46:41;10.13;;;1.95;;
71423;SDS011;59240;51.370;-0.486;2023-09-30T19:51:38;14.60;;;2.97;;
71423;SDS011;59240;51.370;-0.486;2023-09-30T19:56:36;10.07;;;2.13;;
71423;SDS011;59240;51.370;-0.486;2023-09-30T20:01:33;7.40;;;2.20;;
71423;SDS011;59240;51.370;-0.486;2023-09-30T20:06:30;11.52;;;2.00;;
71423;SDS011;59240;51.370;-0.486;2023-09-30T20:11:29;10.55;;;2.38;;
71423;SDS011;59240;51.370;-0.486;2023-09-30T20:16:26;9.50;;;2.33;;
71423;SDS011;59240;51.370;-0.486;2023-09-30T20:21:24;8.32;;;2.10;;
71423;SDS011;59240;51.370;-0.486;2023-09-30T20:26:21;8.35;;;2.15;;
71423;SDS011;59240;51.370;-0.486;2023-09-30T20:31:20;11.18;;;2.40;;
71423;SDS011;59240;51.370;-0.486;2023-09-30T20:36:17;6.60;;;2.13;;
71423;SDS011;59240;51.370;-0.486;2023-09-30T20:41:15;14.15;;;2.47;;
71423;SDS011;59240;51.370;-0.486;2023-09-30T20:46:12;8.15;;;2.05;;
71423;SDS011;59240;51.370;-0.486;2023-09-30T20:51:10;11.85;;;3.25;;
71423;SDS011;59240;51.370;-0.486;2023-09-30T20:56:11;15.35;;;2.83;;
71423;SDS011;59240;51.370;-0.486;2023-09-30T21:06:08;6.45;;;2.05;;
71423;SDS011;59240;51.370;-0.486;2023-09-30T21:11:06;11.60;;;2.30;;
71423;SDS011;59240;51.370;-0.486;2023-09-30T21:16:03;6.32;;;2.67;;
71423;SDS011;59240;51.370;-0.486;2023-09-30T21:21:00;9.73;;;2.00;;
71423;SDS011;59240;51.370;-0.486;2023-09-30T21:25:58;8.07;;;2.80;;
71423;SDS011;59240;51.370;-0.486;2023-09-30T21:30:55;10.00;;;2.33;;
71423;SDS011;59240;51.370;-0.486;2023-09-30T21:35:56;6.28;;;2.28;;
71423;SDS011;59240;51.370;-0.486;2023-09-30T21:40:53;8.43;;;2.83;;
71423;SDS011;59240;51.370;-0.486;2023-09-30T21:45:50;11.18;;;2.90;;
71423;SDS011;59240;51.370;-0.486;2023-09-30T21:50:47;8.13;;;2.78;;
71423;SDS011;59240;51.370;-0.486;2023-09-30T21:55:44;7.00;;;2.30;;
71423;SDS011;59240;51.370;-0.486;2023-09-30T22:00:41;10.93;;;2.78;;
71423;SDS011;59240;51.370;-0.486;2023-09-30T22:05:39;11.75;;;2.80;;
71423;SDS011;59240;51.370;-0.486;2023-09-30T22:10:38;12.35;;;3.13;;
71423;SDS011;59240;51.370;-0.486;2023-09-30T22:15:36;8.82;;;2.28;;
71423;SDS011;59240;51.370;-0.486;2023-09-30T22:20:34;11.13;;;2.53;;
71423;SDS011;59240;51.370;-0.486;2023-09-30T22:25:31;10.07;;;2.55;;
71423;SDS011;59240;51.370;-0.486;2023-09-30T22:30:33;5.93;;;2.20;;
71423;SDS011;59240;51.370;-0.486;2023-09-30T22:35:31;11.18;;;2.45;;
71423;SDS011;59240;51.370;-0.486;2023-09-30T22:40:28;9.82;;;2.60;;
71423;SDS011;59240;51.370;-0.486;2023-09-30T22:45:25;9.45;;;2.80;;
71423;SDS011;59240;51.370;-0.486;2023-09-30T22:50:22;9.15;;;2.28;;
71423;SDS011;59240;51.370;-0.486;2023-09-30T22:55:20;14.38;;;3.03;;
71423;SDS011;59240;51.370;-0.486;2023-09-30T23:00:18;8.50;;;2.53;;
71423;SDS011;59240;51.370;-0.486;2023-09-30T23:05:16;9.70;;;3.60;;
71423;SDS011;59240;51.370;-0.486;2023-09-30T23:10:15;11.60;;;2.88;;
71423;SDS011;59240;51.370;-0.486;2023-09-30T23:15:14;7.43;;;2.38;;
71423;SDS011;59240;51.370;-0.486;2023-09-30T23:20:16;10.82;;;3.13;;
71423;SDS011;59240;51.370;-0.486;2023-09-30T23:25:17;9.55;;;3.10;;
71423;SDS011;59240;51.370;-0.486;2023-09-30T23:30:15;12.85;;;3.97;;
71423;SDS011;59240;51.370;-0.486;2023-09-30T23:35:14;9.73;;;3.15;;
71423;SDS011;59240;51.370;-0.486;2023-09-30T23:40:13;9.00;;;2.63;;
71423;SDS011;59240;51.370;-0.486;2023-09-30T23:45:10;11.75;;;3.10;;
71423;SDS011;59240;51.370;-0.486;2023-09-30T23:50:11;8.48;;;3.55;;
71423;SDS011;59240;51.370;-0.486;2023-09-30T23:55:13;7.70;;;2.80;;
